Lisbon, Maryland
Current Conditions -  °F | °C
As of 4:15 PM on Sunday 23 Nov 2014 (Local Time) from KGAI Reporting Station
Clear Clear  
Wind Chill: 52°   Ceiling: Unl
Heat Index: 52°   Visibility: 10mi
Dew Point: 28°   Wind: 5mph
Humidity: 41%   Direction: 100°E
Pressure: 30.11"   Gusts: NA
Location:  39.34°N, 77.07°W
Report Text: KGAI 232115Z 10004KT 10SM CLR 11/M02 A3011 RMK AO1
Loading
Personal Weather Stations






























Interactive Weather Map New forecast layout! Learn more

10-Day Weather Forecast

Advertisements
Track Severe Weather on mobile